Sacramento, California
Traffic Map
Current Weather Conditions
Sacramento, California
Clear
Clear
20°
Feels Like: 20°
Wind Chill: 20° Ceiling: Unl
Heat Index: 20° Visibility: 10mi
Dew Point: 11° Wind: 10mph
Humidity: 56% Direction: 180° (S)
Pressure: 29.86in Gusts: 0mph
Raw Report DataKMCC 300415Z AUTO 18009KT 10SM CLR 20/11 A2986 RMK AO2
Traffic Incident Summary
Active as of:
Severity:
Category:
InformationThere was an issue retrieving the traffic information for this location. Please try a different location or try again shortly.
Advertisements
Track Severe Weather on mobile